sensor_id;sensor_type;location;lat;lon;timestamp;temperature;humidity
75719;DHT22;64340;48.534;-3.036;2023-04-25T00:02:21;17.00;58.60
75719;DHT22;64340;48.534;-3.036;2023-04-25T00:04:47;17.00;58.50
75719;DHT22;64340;48.534;-3.036;2023-04-25T00:07:15;17.00;58.50
75719;DHT22;64340;48.534;-3.036;2023-04-25T00:09:42;17.00;58.50
75719;DHT22;64340;48.534;-3.036;2023-04-25T00:12:08;17.00;58.40
75719;DHT22;64340;48.534;-3.036;2023-04-25T00:14:34;16.90;58.40
75719;DHT22;64340;48.534;-3.036;2023-04-25T00:17:01;16.90;58.40
75719;DHT22;64340;48.534;-3.036;2023-04-25T00:19:28;16.90;58.50
75719;DHT22;64340;48.534;-3.036;2023-04-25T00:21:55;16.90;58.50
75719;DHT22;64340;48.534;-3.036;2023-04-25T00:24:21;16.80;58.20
75719;DHT22;64340;48.534;-3.036;2023-04-25T00:26:46;16.80;58.10
75719;DHT22;64340;48.534;-3.036;2023-04-25T00:29:12;16.80;58.30
75719;DHT22;64340;48.534;-3.036;2023-04-25T00:31:38;16.80;58.30
75719;DHT22;64340;48.534;-3.036;2023-04-25T00:34:05;16.70;58.30
75719;DHT22;64340;48.534;-3.036;2023-04-25T00:36:31;16.70;58.10
75719;DHT22;64340;48.534;-3.036;2023-04-25T00:38:57;16.70;58.30
75719;DHT22;64340;48.534;-3.036;2023-04-25T00:41:24;16.70;58.20
75719;DHT22;64340;48.534;-3.036;2023-04-25T00:43:51;16.70;58.00
75719;DHT22;64340;48.534;-3.036;2023-04-25T00:46:17;16.70;58.10
75719;DHT22;64340;48.534;-3.036;2023-04-25T00:48:43;16.60;57.80
75719;DHT22;64340;48.534;-3.036;2023-04-25T00:51:13;16.60;58.00
75719;DHT22;64340;48.534;-3.036;2023-04-25T00:53:41;16.60;57.60
75719;DHT22;64340;48.534;-3.036;2023-04-25T00:56:07;16.60;57.90
75719;DHT22;64340;48.534;-3.036;2023-04-25T00:58:33;16.50;58.00
75719;DHT22;64340;48.534;-3.036;2023-04-25T01:01:00;16.50;57.60
75719;DHT22;64340;48.534;-3.036;2023-04-25T01:03:26;16.50;57.80
75719;DHT22;64340;48.534;-3.036;2023-04-25T01:05:54;16.50;57.70
75719;DHT22;64340;48.534;-3.036;2023-04-25T01:08:23;16.50;57.50
75719;DHT22;64340;48.534;-3.036;2023-04-25T01:10:52;16.50;57.50
75719;DHT22;64340;48.534;-3.036;2023-04-25T01:13:18;16.40;57.60
75719;DHT22;64340;48.534;-3.036;2023-04-25T01:15:45;16.40;57.80
75719;DHT22;64340;48.534;-3.036;2023-04-25T01:18:12;16.40;57.50
75719;DHT22;64340;48.534;-3.036;2023-04-25T01:20:38;16.40;57.60
75719;DHT22;64340;48.534;-3.036;2023-04-25T01:23:05;16.40;57.60
75719;DHT22;64340;48.534;-3.036;2023-04-25T01:25:31;16.40;57.90
75719;DHT22;64340;48.534;-3.036;2023-04-25T01:27:58;16.40;58.10
75719;DHT22;64340;48.534;-3.036;2023-04-25T01:30:26;16.40;58.20
75719;DHT22;64340;48.534;-3.036;2023-04-25T01:32:54;16.40;58.10
75719;DHT22;64340;48.534;-3.036;2023-04-25T01:35:20;16.40;57.80
75719;DHT22;64340;48.534;-3.036;2023-04-25T01:37:46;16.40;57.80
75719;DHT22;64340;48.534;-3.036;2023-04-25T01:40:12;16.40;57.70
75719;DHT22;64340;48.534;-3.036;2023-04-25T01:42:40;16.30;57.70
75719;DHT22;64340;48.534;-3.036;2023-04-25T01:45:06;16.30;57.40
75719;DHT22;64340;48.534;-3.036;2023-04-25T01:47:32;16.30;57.50
75719;DHT22;64340;48.534;-3.036;2023-04-25T01:50:04;16.20;57.40
75719;DHT22;64340;48.534;-3.036;2023-04-25T01:52:30;16.20;57.60
75719;DHT22;64340;48.534;-3.036;2023-04-25T01:54:57;16.20;57.40
75719;DHT22;64340;48.534;-3.036;2023-04-25T01:57:23;16.20;57.70
75719;DHT22;64340;48.534;-3.036;2023-04-25T01:59:49;16.20;57.60
75719;DHT22;64340;48.534;-3.036;2023-04-25T02:02:15;16.20;57.50
75719;DHT22;64340;48.534;-3.036;2023-04-25T02:04:41;16.10;57.50
75719;DHT22;64340;48.534;-3.036;2023-04-25T02:07:06;16.10;57.50
75719;DHT22;64340;48.534;-3.036;2023-04-25T02:09:32;16.10;57.60
75719;DHT22;64340;48.534;-3.036;2023-04-25T02:11:58;16.10;57.40
75719;DHT22;64340;48.534;-3.036;2023-04-25T02:14:24;16.10;57.30
75719;DHT22;64340;48.534;-3.036;2023-04-25T02:16:50;16.10;57.50
75719;DHT22;64340;48.534;-3.036;2023-04-25T02:19:16;16.10;57.40
75719;DHT22;64340;48.534;-3.036;2023-04-25T02:21:42;16.00;57.50
75719;DHT22;64340;48.534;-3.036;2023-04-25T02:24:08;16.00;57.60
75719;DHT22;64340;48.534;-3.036;2023-04-25T02:26:34;16.00;57.50
75719;DHT22;64340;48.534;-3.036;2023-04-25T02:29:00;16.00;57.60
75719;DHT22;64340;48.534;-3.036;2023-04-25T02:31:26;16.00;57.70
75719;DHT22;64340;48.534;-3.036;2023-04-25T02:33:52;16.00;57.60
75719;DHT22;64340;48.534;-3.036;2023-04-25T02:36:18;16.00;57.50
75719;DHT22;64340;48.534;-3.036;2023-04-25T02:38:43;16.00;57.70
75719;DHT22;64340;48.534;-3.036;2023-04-25T02:41:09;16.00;57.70
75719;DHT22;64340;48.534;-3.036;2023-04-25T02:43:35;16.00;57.60
75719;DHT22;64340;48.534;-3.036;2023-04-25T02:46:01;16.00;57.80
75719;DHT22;64340;48.534;-3.036;2023-04-25T02:48:26;16.00;57.70
75719;DHT22;64340;48.534;-3.036;2023-04-25T02:50:52;16.00;57.70
75719;DHT22;64340;48.534;-3.036;2023-04-25T02:53:18;15.90;57.70
75719;DHT22;64340;48.534;-3.036;2023-04-25T02:55:43;15.90;57.70
75719;DHT22;64340;48.534;-3.036;2023-04-25T02:58:09;15.90;57.70
75719;DHT22;64340;48.534;-3.036;2023-04-25T03:00:35;15.90;57.80
75719;DHT22;64340;48.534;-3.036;2023-04-25T03:03:01;15.90;57.90
75719;DHT22;64340;48.534;-3.036;2023-04-25T03:05:27;15.90;57.70
75719;DHT22;64340;48.534;-3.036;2023-04-25T03:07:52;15.80;57.70
75719;DHT22;64340;48.534;-3.036;2023-04-25T03:10:18;15.90;57.80
75719;DHT22;64340;48.534;-3.036;2023-04-25T03:12:44;15.80;57.80
75719;DHT22;64340;48.534;-3.036;2023-04-25T03:15:10;15.80;57.90
75719;DHT22;64340;48.534;-3.036;2023-04-25T03:17:35;15.80;57.70
75719;DHT22;64340;48.534;-3.036;2023-04-25T03:20:01;15.80;57.80
75719;DHT22;64340;48.534;-3.036;2023-04-25T03:22:30;15.80;57.80
75719;DHT22;64340;48.534;-3.036;2023-04-25T03:24:56;15.80;57.90
75719;DHT22;64340;48.534;-3.036;2023-04-25T03:27:22;15.80;57.90
75719;DHT22;64340;48.534;-3.036;2023-04-25T03:29:48;15.80;57.90
75719;DHT22;64340;48.534;-3.036;2023-04-25T03:32:13;15.80;57.90
75719;DHT22;64340;48.534;-3.036;2023-04-25T03:34:39;15.80;57.90
75719;DHT22;64340;48.534;-3.036;2023-04-25T03:37:05;15.80;57.80
75719;DHT22;64340;48.534;-3.036;2023-04-25T03:39:31;15.80;57.90
75719;DHT22;64340;48.534;-3.036;2023-04-25T03:41:56;15.80;57.70
75719;DHT22;64340;48.534;-3.036;2023-04-25T03:44:22;15.80;57.90
75719;DHT22;64340;48.534;-3.036;2023-04-25T03:46:49;15.70;57.80
75719;DHT22;64340;48.534;-3.036;2023-04-25T03:49:16;15.70;57.90
75719;DHT22;64340;48.534;-3.036;2023-04-25T03:51:42;15.70;57.80
75719;DHT22;64340;48.534;-3.036;2023-04-25T03:54:07;15.70;57.80
75719;DHT22;64340;48.534;-3.036;2023-04-25T03:56:33;15.70;57.90
75719;DHT22;64340;48.534;-3.036;2023-04-25T03:58:59;15.60;57.90
75719;DHT22;64340;48.534;-3.036;2023-04-25T04:01:25;15.60;57.80
75719;DHT22;64340;48.534;-3.036;2023-04-25T04:03:50;15.60;57.80
75719;DHT22;64340;48.534;-3.036;2023-04-25T04:06:16;15.60;57.80
75719;DHT22;64340;48.534;-3.036;2023-04-25T04:08:42;15.60;57.90
75719;DHT22;64340;48.534;-3.036;2023-04-25T04:11:08;15.70;57.60
75719;DHT22;64340;48.534;-3.036;2023-04-25T04:13:34;15.70;57.60
75719;DHT22;64340;48.534;-3.036;2023-04-25T04:15:59;15.60;57.70
75719;DHT22;64340;48.534;-3.036;2023-04-25T04:18:25;15.60;57.80
75719;DHT22;64340;48.534;-3.036;2023-04-25T04:20:51;15.60;57.80
75719;DHT22;64340;48.534;-3.036;2023-04-25T04:23:17;15.60;56.50
75719;DHT22;64340;48.534;-3.036;2023-04-25T04:25:43;15.40;57.90
75719;DHT22;64340;48.534;-3.036;2023-04-25T04:28:09;15.50;58.20
75719;DHT22;64340;48.534;-3.036;2023-04-25T04:30:36;15.60;58.20
75719;DHT22;64340;48.534;-3.036;2023-04-25T04:33:03;15.60;58.60
75719;DHT22;64340;48.534;-3.036;2023-04-25T04:35:29;15.70;58.30
75719;DHT22;64340;48.534;-3.036;2023-04-25T04:37:54;15.60;58.80
75719;DHT22;64340;48.534;-3.036;2023-04-25T04:40:20;15.60;58.90
75719;DHT22;64340;48.534;-3.036;2023-04-25T04:42:47;15.60;58.90
75719;DHT22;64340;48.534;-3.036;2023-04-25T04:45:13;15.60;59.00
75719;DHT22;64340;48.534;-3.036;2023-04-25T04:47:40;15.60;59.30
75719;DHT22;64340;48.534;-3.036;2023-04-25T04:50:09;15.60;59.00
75719;DHT22;64340;48.534;-3.036;2023-04-25T04:52:37;15.60;58.70
75719;DHT22;64340;48.534;-3.036;2023-04-25T04:55:04;15.60;59.00
75719;DHT22;64340;48.534;-3.036;2023-04-25T04:57:31;15.60;59.00
75719;DHT22;64340;48.534;-3.036;2023-04-25T04:59:59;15.60;59.10
75719;DHT22;64340;48.534;-3.036;2023-04-25T05:02:26;15.60;59.00
75719;DHT22;64340;48.534;-3.036;2023-04-25T05:04:52;15.60;59.00
75719;DHT22;64340;48.534;-3.036;2023-04-25T05:07:18;15.60;59.00
75719;DHT22;64340;48.534;-3.036;2023-04-25T05:09:45;15.50;59.10
75719;DHT22;64340;48.534;-3.036;2023-04-25T05:12:11;15.50;59.10
75719;DHT22;64340;48.534;-3.036;2023-04-25T05:14:37;15.50;59.00
75719;DHT22;64340;48.534;-3.036;2023-04-25T05:17:03;15.50;59.20
75719;DHT22;64340;48.534;-3.036;2023-04-25T05:19:32;15.50;59.30
75719;DHT22;64340;48.534;-3.036;2023-04-25T05:21:59;15.50;59.60
75719;DHT22;64340;48.534;-3.036;2023-04-25T05:24:25;15.50;60.00
75719;DHT22;64340;48.534;-3.036;2023-04-25T05:26:51;15.40;60.70
75719;DHT22;64340;48.534;-3.036;2023-04-25T05:29:19;15.30;61.50
75719;DHT22;64340;48.534;-3.036;2023-04-25T05:31:46;15.30;61.50
75719;DHT22;64340;48.534;-3.036;2023-04-25T05:34:13;15.30;61.50
75719;DHT22;64340;48.534;-3.036;2023-04-25T05:36:39;15.20;61.30
75719;DHT22;64340;48.534;-3.036;2023-04-25T05:39:08;15.20;61.10
75719;DHT22;64340;48.534;-3.036;2023-04-25T05:41:34;15.20;60.90
75719;DHT22;64340;48.534;-3.036;2023-04-25T05:44:00;15.10;60.80
75719;DHT22;64340;48.534;-3.036;2023-04-25T05:46:26;15.00;60.70
75719;DHT22;64340;48.534;-3.036;2023-04-25T05:48:51;15.00;60.50
75719;DHT22;64340;48.534;-3.036;2023-04-25T05:51:17;15.00;60.30
75719;DHT22;64340;48.534;-3.036;2023-04-25T05:53:44;15.00;60.20
75719;DHT22;64340;48.534;-3.036;2023-04-25T05:56:10;15.00;60.10
75719;DHT22;64340;48.534;-3.036;2023-04-25T05:58:36;15.00;60.10
75719;DHT22;64340;48.534;-3.036;2023-04-25T06:01:01;15.00;59.90
75719;DHT22;64340;48.534;-3.036;2023-04-25T06:03:28;15.00;59.70
75719;DHT22;64340;48.534;-3.036;2023-04-25T06:05:53;15.00;59.60
75719;DHT22;64340;48.534;-3.036;2023-04-25T06:08:19;14.90;59.60
75719;DHT22;64340;48.534;-3.036;2023-04-25T06:10:45;14.90;59.60
75719;DHT22;64340;48.534;-3.036;2023-04-25T06:13:11;14.90;59.50
75719;DHT22;64340;48.534;-3.036;2023-04-25T06:15:36;14.90;59.40
75719;DHT22;64340;48.534;-3.036;2023-04-25T06:18:02;15.00;59.40
75719;DHT22;64340;48.534;-3.036;2023-04-25T06:20:28;14.90;59.30
75719;DHT22;64340;48.534;-3.036;2023-04-25T06:22:54;15.00;59.20
75719;DHT22;64340;48.534;-3.036;2023-04-25T06:25:20;14.90;59.30
75719;DHT22;64340;48.534;-3.036;2023-04-25T06:27:46;14.90;59.30
75719;DHT22;64340;48.534;-3.036;2023-04-25T06:30:11;14.90;59.30
75719;DHT22;64340;48.534;-3.036;2023-04-25T06:32:38;14.90;59.20
75719;DHT22;64340;48.534;-3.036;2023-04-25T06:35:04;14.80;59.30
75719;DHT22;64340;48.534;-3.036;2023-04-25T06:37:30;14.80;59.30
75719;DHT22;64340;48.534;-3.036;2023-04-25T06:39:56;14.80;59.20
75719;DHT22;64340;48.534;-3.036;2023-04-25T06:42:22;14.80;59.30
75719;DHT22;64340;48.534;-3.036;2023-04-25T06:44:48;14.80;59.20
75719;DHT22;64340;48.534;-3.036;2023-04-25T06:47:14;14.90;59.20
75719;DHT22;64340;48.534;-3.036;2023-04-25T06:49:40;14.90;59.20
75719;DHT22;64340;48.534;-3.036;2023-04-25T06:52:07;14.90;59.20
75719;DHT22;64340;48.534;-3.036;2023-04-25T06:54:32;14.90;59.20
75719;DHT22;64340;48.534;-3.036;2023-04-25T06:56:58;14.90;59.20
75719;DHT22;64340;48.534;-3.036;2023-04-25T06:59:26;14.90;59.20
75719;DHT22;64340;48.534;-3.036;2023-04-25T07:01:52;14.90;59.30
75719;DHT22;64340;48.534;-3.036;2023-04-25T07:04:17;14.90;59.30
75719;DHT22;64340;48.534;-3.036;2023-04-25T07:06:43;14.90;59.30
75719;DHT22;64340;48.534;-3.036;2023-04-25T07:09:10;15.00;59.30
75719;DHT22;64340;48.534;-3.036;2023-04-25T07:11:36;15.00;59.30
75719;DHT22;64340;48.534;-3.036;2023-04-25T07:14:02;15.00;59.30
75719;DHT22;64340;48.534;-3.036;2023-04-25T07:16:28;15.00;59.40
75719;DHT22;64340;48.534;-3.036;2023-04-25T07:18:54;14.90;59.50
75719;DHT22;64340;48.534;-3.036;2023-04-25T07:21:20;14.90;59.60
75719;DHT22;64340;48.534;-3.036;2023-04-25T07:23:45;14.90;59.60
75719;DHT22;64340;48.534;-3.036;2023-04-25T07:26:11;14.90;59.50
75719;DHT22;64340;48.534;-3.036;2023-04-25T07:28:37;15.00;59.60
75719;DHT22;64340;48.534;-3.036;2023-04-25T07:31:03;15.00;59.60
75719;DHT22;64340;48.534;-3.036;2023-04-25T07:33:29;14.90;59.60
75719;DHT22;64340;48.534;-3.036;2023-04-25T07:35:55;14.90;59.50
75719;DHT22;64340;48.534;-3.036;2023-04-25T07:38:21;14.90;59.60
75719;DHT22;64340;48.534;-3.036;2023-04-25T07:40:48;15.00;59.70
75719;DHT22;64340;48.534;-3.036;2023-04-25T07:43:14;15.00;59.70
75719;DHT22;64340;48.534;-3.036;2023-04-25T07:45:43;14.90;59.70
75719;DHT22;64340;48.534;-3.036;2023-04-25T07:48:08;14.90;59.70
75719;DHT22;64340;48.534;-3.036;2023-04-25T07:50:34;14.90;59.70
75719;DHT22;64340;48.534;-3.036;2023-04-25T07:53:00;14.90;59.70
75719;DHT22;64340;48.534;-3.036;2023-04-25T07:55:26;14.90;59.80
75719;DHT22;64340;48.534;-3.036;2023-04-25T07:57:52;14.90;59.70
75719;DHT22;64340;48.534;-3.036;2023-04-25T08:00:18;14.90;59.70
75719;DHT22;64340;48.534;-3.036;2023-04-25T08:02:44;14.90;59.80
75719;DHT22;64340;48.534;-3.036;2023-04-25T08:05:10;14.90;59.90
75719;DHT22;64340;48.534;-3.036;2023-04-25T08:07:40;14.90;59.90
75719;DHT22;64340;48.534;-3.036;2023-04-25T08:10:06;14.80;60.00
75719;DHT22;64340;48.534;-3.036;2023-04-25T08:12:32;14.80;60.10
75719;DHT22;64340;48.534;-3.036;2023-04-25T08:14:58;14.70;60.10
75719;DHT22;64340;48.534;-3.036;2023-04-25T08:17:24;14.70;60.00
75719;DHT22;64340;48.534;-3.036;2023-04-25T08:19:50;14.70;60.00
75719;DHT22;64340;48.534;-3.036;2023-04-25T08:22:16;14.70;60.00
75719;DHT22;64340;48.534;-3.036;2023-04-25T08:24:41;14.60;60.00
75719;DHT22;64340;48.534;-3.036;2023-04-25T08:27:07;14.60;60.00
75719;DHT22;64340;48.534;-3.036;2023-04-25T08:29:34;14.60;60.00
75719;DHT22;64340;48.534;-3.036;2023-04-25T08:32:00;14.60;59.90
75719;DHT22;64340;48.534;-3.036;2023-04-25T08:34:26;14.60;59.90
75719;DHT22;64340;48.534;-3.036;2023-04-25T08:36:52;14.70;59.80
75719;DHT22;64340;48.534;-3.036;2023-04-25T08:39:18;14.60;59.80
75719;DHT22;64340;48.534;-3.036;2023-04-25T08:41:44;14.60;59.90
75719;DHT22;64340;48.534;-3.036;2023-04-25T08:44:11;14.60;59.80
75719;DHT22;64340;48.534;-3.036;2023-04-25T08:46:40;14.60;59.80
75719;DHT22;64340;48.534;-3.036;2023-04-25T08:49:07;14.60;59.70
75719;DHT22;64340;48.534;-3.036;2023-04-25T08:51:37;14.60;59.70
75719;DHT22;64340;48.534;-3.036;2023-04-25T08:54:09;14.60;59.70
75719;DHT22;64340;48.534;-3.036;2023-04-25T08:56:41;14.60;59.60
75719;DHT22;64340;48.534;-3.036;2023-04-25T08:59:07;14.60;59.60
75719;DHT22;64340;48.534;-3.036;2023-04-25T09:01:36;14.60;59.40
75719;DHT22;64340;48.534;-3.036;2023-04-25T09:04:02;14.60;59.20
75719;DHT22;64340;48.534;-3.036;2023-04-25T09:06:29;14.50;58.90
75719;DHT22;64340;48.534;-3.036;2023-04-25T09:09:06;14.40;59.00
75719;DHT22;64340;48.534;-3.036;2023-04-25T09:11:34;14.40;59.00
75719;DHT22;64340;48.534;-3.036;2023-04-25T09:14:33;14.40;58.90
75719;DHT22;64340;48.534;-3.036;2023-04-25T09:17:01;14.40;58.70
75719;DHT22;64340;48.534;-3.036;2023-04-25T09:19:35;14.50;58.70
75719;DHT22;64340;48.534;-3.036;2023-04-25T09:22:03;14.50;58.50
75719;DHT22;64340;48.534;-3.036;2023-04-25T09:24:40;14.50;58.40
75719;DHT22;64340;48.534;-3.036;2023-04-25T09:27:11;14.50;58.20
75719;DHT22;64340;48.534;-3.036;2023-04-25T09:29:39;14.50;58.00
75719;DHT22;64340;48.534;-3.036;2023-04-25T09:34:52;14.50;57.80
75719;DHT22;64340;48.534;-3.036;2023-04-25T09:37:24;14.50;57.80
75719;DHT22;64340;48.534;-3.036;2023-04-25T09:39:53;14.50;57.60
75719;DHT22;64340;48.534;-3.036;2023-04-25T09:42:23;14.40;57.40
75719;DHT22;64340;48.534;-3.036;2023-04-25T09:44:51;14.50;57.40
75719;DHT22;64340;48.534;-3.036;2023-04-25T09:47:17;14.40;57.30
75719;DHT22;64340;48.534;-3.036;2023-04-25T09:49:44;14.40;57.20
75719;DHT22;64340;48.534;-3.036;2023-04-25T09:52:15;14.50;57.20
75719;DHT22;64340;48.534;-3.036;2023-04-25T09:54:41;14.40;57.10
75719;DHT22;64340;48.534;-3.036;2023-04-25T09:57:23;14.40;57.00
75719;DHT22;64340;48.534;-3.036;2023-04-25T09:59:51;14.40;57.10
75719;DHT22;64340;48.534;-3.036;2023-04-25T10:02:25;14.40;57.10
75719;DHT22;64340;48.534;-3.036;2023-04-25T10:04:53;14.40;57.10
75719;DHT22;64340;48.534;-3.036;2023-04-25T10:07:25;14.50;57.10
75719;DHT22;64340;48.534;-3.036;2023-04-25T10:09:56;14.50;57.00
75719;DHT22;64340;48.534;-3.036;2023-04-25T10:12:24;14.40;56.70
75719;DHT22;64340;48.534;-3.036;2023-04-25T10:14:52;14.40;56.80
75719;DHT22;64340;48.534;-3.036;2023-04-25T10:17:20;14.40;56.80
75719;DHT22;64340;48.534;-3.036;2023-04-25T10:19:47;14.40;56.80
75719;DHT22;64340;48.534;-3.036;2023-04-25T10:22:34;14.50;56.90
75719;DHT22;64340;48.534;-3.036;2023-04-25T10:25:01;14.50;56.80
75719;DHT22;64340;48.534;-3.036;2023-04-25T10:27:30;14.50;56.70
75719;DHT22;64340;48.534;-3.036;2023-04-25T10:32:31;14.50;56.70
75719;DHT22;64340;48.534;-3.036;2023-04-25T10:35:19;14.50;56.80
75719;DHT22;64340;48.534;-3.036;2023-04-25T10:38:08;14.50;56.80
75719;DHT22;64340;48.534;-3.036;2023-04-25T10:40:34;14.50;56.90
75719;DHT22;64340;48.534;-3.036;2023-04-25T10:45:59;14.60;57.10
75719;DHT22;64340;48.534;-3.036;2023-04-25T10:48:29;14.60;57.10
75719;DHT22;64340;48.534;-3.036;2023-04-25T10:51:15;14.60;57.30
75719;DHT22;64340;48.534;-3.036;2023-04-25T10:53:41;14.70;57.10
75719;DHT22;64340;48.534;-3.036;2023-04-25T10:56:17;14.70;57.10
75719;DHT22;64340;48.534;-3.036;2023-04-25T10:58:46;14.80;57.00
75719;DHT22;64340;48.534;-3.036;2023-04-25T11:01:21;14.80;57.10
75719;DHT22;64340;48.534;-3.036;2023-04-25T11:03:57;14.70;56.80
75719;DHT22;64340;48.534;-3.036;2023-04-25T11:06:32;14.60;57.00
75719;DHT22;64340;48.534;-3.036;2023-04-25T11:09:03;14.70;57.10
75719;DHT22;64340;48.534;-3.036;2023-04-25T11:11:36;14.60;56.90
75719;DHT22;64340;48.534;-3.036;2023-04-25T11:14:02;14.60;56.60
75719;DHT22;64340;48.534;-3.036;2023-04-25T11:16:28;14.60;56.80
75719;DHT22;64340;48.534;-3.036;2023-04-25T11:18:57;14.50;56.80
75719;DHT22;64340;48.534;-3.036;2023-04-25T11:21:24;14.50;56.70
75719;DHT22;64340;48.534;-3.036;2023-04-25T11:23:51;14.50;56.60
75719;DHT22;64340;48.534;-3.036;2023-04-25T11:26:19;14.50;56.70
75719;DHT22;64340;48.534;-3.036;2023-04-25T11:28:45;14.50;56.60
75719;DHT22;64340;48.534;-3.036;2023-04-25T11:31:12;14.50;56.40
75719;DHT22;64340;48.534;-3.036;2023-04-25T11:33:38;14.50;56.60
75719;DHT22;64340;48.534;-3.036;2023-04-25T11:36:06;14.50;56.70
75719;DHT22;64340;48.534;-3.036;2023-04-25T11:38:32;14.50;56.90
75719;DHT22;64340;48.534;-3.036;2023-04-25T11:40:58;14.60;57.00
75719;DHT22;64340;48.534;-3.036;2023-04-25T11:43:25;14.60;57.20
75719;DHT22;64340;48.534;-3.036;2023-04-25T11:45:51;14.60;57.40
75719;DHT22;64340;48.534;-3.036;2023-04-25T11:48:18;14.60;57.50
75719;DHT22;64340;48.534;-3.036;2023-04-25T11:50:44;14.50;57.60
75719;DHT22;64340;48.534;-3.036;2023-04-25T11:53:11;14.60;57.70
75719;DHT22;64340;48.534;-3.036;2023-04-25T11:55:37;14.60;57.80
75719;DHT22;64340;48.534;-3.036;2023-04-25T11:58:04;14.60;57.80
75719;DHT22;64340;48.534;-3.036;2023-04-25T12:00:35;14.60;57.70
75719;DHT22;64340;48.534;-3.036;2023-04-25T12:03:01;14.70;57.80
75719;DHT22;64340;48.534;-3.036;2023-04-25T12:05:30;14.60;57.80
75719;DHT22;64340;48.534;-3.036;2023-04-25T12:08:09;14.60;57.80
75719;DHT22;64340;48.534;-3.036;2023-04-25T12:10:40;14.70;57.80
75719;DHT22;64340;48.534;-3.036;2023-04-25T12:13:23;14.70;57.80
75719;DHT22;64340;48.534;-3.036;2023-04-25T12:15:49;14.70;57.70
75719;DHT22;64340;48.534;-3.036;2023-04-25T12:18:20;14.70;57.80
75719;DHT22;64340;48.534;-3.036;2023-04-25T12:20:46;14.80;57.70
75719;DHT22;64340;48.534;-3.036;2023-04-25T12:23:12;14.70;57.90
75719;DHT22;64340;48.534;-3.036;2023-04-25T12:25:42;14.80;57.90
75719;DHT22;64340;48.534;-3.036;2023-04-25T12:28:16;14.80;58.00
75719;DHT22;64340;48.534;-3.036;2023-04-25T12:31:02;14.80;57.80
75719;DHT22;64340;48.534;-3.036;2023-04-25T12:33:35;14.80;57.90
75719;DHT22;64340;48.534;-3.036;2023-04-25T12:36:04;14.80;57.80
75719;DHT22;64340;48.534;-3.036;2023-04-25T12:38:38;14.80;58.00
75719;DHT22;64340;48.534;-3.036;2023-04-25T12:41:05;14.70;58.10
75719;DHT22;64340;48.534;-3.036;2023-04-25T12:43:31;14.70;58.00
75719;DHT22;64340;48.534;-3.036;2023-04-25T12:45:57;14.70;58.00
75719;DHT22;64340;48.534;-3.036;2023-04-25T12:48:23;14.80;57.90
75719;DHT22;64340;48.534;-3.036;2023-04-25T12:50:50;14.70;57.80
75719;DHT22;64340;48.534;-3.036;2023-04-25T12:53:21;14.80;57.90
75719;DHT22;64340;48.534;-3.036;2023-04-25T12:55:48;14.70;58.00
75719;DHT22;64340;48.534;-3.036;2023-04-25T12:58:15;14.80;57.80
75719;DHT22;64340;48.534;-3.036;2023-04-25T13:00:41;14.70;57.70
75719;DHT22;64340;48.534;-3.036;2023-04-25T13:03:08;14.70;57.70
75719;DHT22;64340;48.534;-3.036;2023-04-25T13:05:34;14.70;57.50
75719;DHT22;64340;48.534;-3.036;2023-04-25T13:08:00;14.70;57.60
75719;DHT22;64340;48.534;-3.036;2023-04-25T13:10:25;14.70;57.50
75719;DHT22;64340;48.534;-3.036;2023-04-25T13:12:51;14.70;57.40
75719;DHT22;64340;48.534;-3.036;2023-04-25T13:15:17;14.70;57.60
75719;DHT22;64340;48.534;-3.036;2023-04-25T13:17:43;14.70;57.70
75719;DHT22;64340;48.534;-3.036;2023-04-25T13:20:09;14.70;57.70
75719;DHT22;64340;48.534;-3.036;2023-04-25T13:22:39;14.70;57.60
75719;DHT22;64340;48.534;-3.036;2023-04-25T13:25:06;14.70;57.70
75719;DHT22;64340;48.534;-3.036;2023-04-25T13:27:33;14.80;57.60
75719;DHT22;64340;48.534;-3.036;2023-04-25T13:30:01;14.90;57.50
75719;DHT22;64340;48.534;-3.036;2023-04-25T13:32:35;15.00;57.50
75719;DHT22;64340;48.534;-3.036;2023-04-25T13:35:05;15.00;57.50
75719;DHT22;64340;48.534;-3.036;2023-04-25T13:37:31;15.00;57.50
75719;DHT22;64340;48.534;-3.036;2023-04-25T13:40:06;15.00;57.40
75719;DHT22;64340;48.534;-3.036;2023-04-25T13:42:34;15.10;57.40
75719;DHT22;64340;48.534;-3.036;2023-04-25T13:45:02;15.00;57.40
75719;DHT22;64340;48.534;-3.036;2023-04-25T13:47:29;15.10;57.40
75719;DHT22;64340;48.534;-3.036;2023-04-25T13:49:56;15.10;57.50
75719;DHT22;64340;48.534;-3.036;2023-04-25T13:52:22;15.20;57.40
75719;DHT22;64340;48.534;-3.036;2023-04-25T13:54:50;15.10;57.50
75719;DHT22;64340;48.534;-3.036;2023-04-25T13:57:17;15.20;57.60
75719;DHT22;64340;48.534;-3.036;2023-04-25T13:59:42;15.20;57.60
75719;DHT22;64340;48.534;-3.036;2023-04-25T14:02:08;15.20;57.60
75719;DHT22;64340;48.534;-3.036;2023-04-25T14:04:35;15.20;57.70
75719;DHT22;64340;48.534;-3.036;2023-04-25T14:07:01;15.20;57.70
75719;DHT22;64340;48.534;-3.036;2023-04-25T14:09:29;15.20;57.80
75719;DHT22;64340;48.534;-3.036;2023-04-25T14:11:55;15.20;57.80
75719;DHT22;64340;48.534;-3.036;2023-04-25T14:14:22;15.20;57.80
75719;DHT22;64340;48.534;-3.036;2023-04-25T14:16:49;15.20;57.90
75719;DHT22;64340;48.534;-3.036;2023-04-25T14:19:16;15.10;58.00
75719;DHT22;64340;48.534;-3.036;2023-04-25T14:21:42;15.10;58.10
75719;DHT22;64340;48.534;-3.036;2023-04-25T14:24:08;15.10;58.10
75719;DHT22;64340;48.534;-3.036;2023-04-25T14:26:34;15.10;58.10
75719;DHT22;64340;48.534;-3.036;2023-04-25T14:29:04;15.10;58.20
75719;DHT22;64340;48.534;-3.036;2023-04-25T14:31:31;15.10;58.10
75719;DHT22;64340;48.534;-3.036;2023-04-25T14:33:57;15.10;58.20
75719;DHT22;64340;48.534;-3.036;2023-04-25T14:36:22;15.20;58.20
75719;DHT22;64340;48.534;-3.036;2023-04-25T14:38:48;15.20;58.20
75719;DHT22;64340;48.534;-3.036;2023-04-25T14:41:14;15.10;58.20
75719;DHT22;64340;48.534;-3.036;2023-04-25T14:43:39;15.30;58.30
75719;DHT22;64340;48.534;-3.036;2023-04-25T14:46:06;15.20;58.20
75719;DHT22;64340;48.534;-3.036;2023-04-25T14:48:33;15.20;58.50
75719;DHT22;64340;48.534;-3.036;2023-04-25T14:51:00;15.20;58.60
75719;DHT22;64340;48.534;-3.036;2023-04-25T14:53:26;15.20;58.60
75719;DHT22;64340;48.534;-3.036;2023-04-25T14:55:52;15.30;58.70
75719;DHT22;64340;48.534;-3.036;2023-04-25T14:58:18;15.30;58.80
75719;DHT22;64340;48.534;-3.036;2023-04-25T15:00:44;15.40;58.90
75719;DHT22;64340;48.534;-3.036;2023-04-25T15:03:10;15.40;58.90
75719;DHT22;64340;48.534;-3.036;2023-04-25T15:05:38;15.40;59.00
75719;DHT22;64340;48.534;-3.036;2023-04-25T15:08:04;15.50;59.00
75719;DHT22;64340;48.534;-3.036;2023-04-25T15:10:30;15.60;59.00
75719;DHT22;64340;48.534;-3.036;2023-04-25T15:12:56;15.50;57.30
75719;DHT22;64340;48.534;-3.036;2023-04-25T15:15:22;15.30;57.40
75719;DHT22;64340;48.534;-3.036;2023-04-25T15:17:49;15.30;57.80
75719;DHT22;64340;48.534;-3.036;2023-04-25T15:20:15;15.30;58.30
75719;DHT22;64340;48.534;-3.036;2023-04-25T15:22:43;15.50;58.60
75719;DHT22;64340;48.534;-3.036;2023-04-25T15:25:15;15.60;58.20